Time;durP1;ratioP1;P1;durP2;ratioP2;P2;SDS_P1;SDS_P2;PMS_P1;PMS_P2;Temp;Humidity;BMP_temperature;BMP_pressure;BME280_temperature;BME280_humidity;BME280_pressure;Samples;Min_cycle;Max_cycle;Signal;HPM_P1;HPM_P2
2023/12/30 00:01:41;;;;;;;8.05;2.45;;;;;;;6.94;100.00;100970.22;6084567;19;20078;-72
2023/12/30 00:03:46;;;;;;;1.35;1.10;;;;;;;6.94;100.00;100978.06;6084060;19;20756;-73
2023/12/30 00:05:54;;;;;;;4.40;2.00;;;;;;;6.86;100.00;100978.25;6087585;19;20006;-72
2023/12/30 00:07:59;;;;;;;5.35;1.85;;;;;;;6.91;100.00;100975.53;6087370;19;20789;-72
2023/12/30 00:10:04;;;;;;;8.43;1.92;;;;;;;6.92;100.00;100970.25;6088608;19;20014;-72
2023/12/30 00:12:09;;;;;;;1.70;1.20;;;;;;;6.97;100.00;100978.00;6086423;19;20590;-76
2023/12/30 00:14:12;;;;;;;8.25;2.53;;;;;;;6.80;100.00;100974.03;6083871;19;20010;-74
2023/12/30 00:16:20;;;;;;;2.33;0.98;;;;;;;6.92;100.00;100985.94;6082088;19;20137;-72
2023/12/30 00:18:25;;;;;;;4.30;1.55;;;;;;;6.87;100.00;100976.47;6086629;19;20733;-74
2023/12/30 00:20:30;;;;;;;6.10;2.20;;;;;;;6.85;100.00;100973.91;6082277;19;20689;-73
2023/12/30 00:22:38;;;;;;;5.45;1.70;;;;;;;6.85;100.00;100975.69;6083558;19;20003;-74
2023/12/30 00:24:43;;;;;;;8.05;2.03;;;;;;;6.76;100.00;100977.59;6084002;19;20403;-74
2023/12/30 00:26:49;;;;;;;4.40;1.85;;;;;;;6.71;100.00;100982.03;6083960;19;20026;-74
2023/12/30 00:28:54;;;;;;;5.78;1.77;;;;;;;6.70;100.00;100975.13;6085914;19;20011;-74
2023/12/30 00:30:59;;;;;;;5.95;2.00;;;;;;;6.62;100.00;100973.56;6085135;19;20010;-74
2023/12/30 00:33:08;;;;;;;5.43;2.10;;;;;;;6.72;100.00;100983.78;6084024;19;20003;-75
2023/12/30 00:35:13;;;;;;;2.85;1.58;;;;;;;6.78;100.00;100974.94;6085542;19;20015;-73
2023/12/30 00:37:21;;;;;;;7.15;2.65;;;;;;;6.71;100.00;100981.19;6086465;19;20925;-73
2023/12/30 00:39:29;;;;;;;12.07;3.00;;;;;;;6.80;100.00;100987.09;6083930;19;20033;-75
2023/12/30 00:41:34;;;;;;;8.65;2.65;;;;;;;6.79;100.00;100976.66;6084416;19;20098;-74
2023/12/30 00:43:40;;;;;;;3.53;1.67;;;;;;;6.84;100.00;100990.47;6080676;19;20133;-73
2023/12/30 00:45:48;;;;;;;6.55;2.25;;;;;;;6.78;100.00;100991.47;6084295;19;20010;-72
2023/12/30 00:47:53;;;;;;;4.15;1.73;;;;;;;6.68;100.00;100989.09;6084014;19;20013;-72
2023/12/30 00:49:58;;;;;;;8.32;1.73;;;;;;;6.72;100.00;100998.59;6084378;19;20052;-72
2023/12/30 00:52:04;;;;;;;6.25;1.70;;;;;;;6.80;100.00;100984.47;6084631;19;20522;-74
2023/12/30 00:54:09;;;;;;;1.88;1.30;;;;;;;6.84;100.00;101000.91;6086144;19;20048;-72
2023/12/30 00:56:18;;;;;;;6.03;1.75;;;;;;;6.80;100.00;100999.28;6083623;19;20789;-72
2023/12/30 00:58:25;;;;;;;7.07;1.88;;;;;;;6.78;100.00;101006.28;6083485;19;20579;-71
2023/12/30 01:00:30;;;;;;;5.05;1.75;;;;;;;6.86;100.00;101001.75;6084203;19;20023;-73
2023/12/30 01:02:36;;;;;;;2.05;1.38;;;;;;;6.75;100.00;101007.22;6083894;19;20010;-75
2023/12/30 01:04:41;;;;;;;3.78;1.20;;;;;;;6.69;100.00;101004.75;6082251;19;20470;-74
2023/12/30 01:06:47;;;;;;;5.72;2.03;;;;;;;6.67;100.00;101008.28;6082215;19;20018;-74
2023/12/30 01:08:52;;;;;;;8.40;1.42;;;;;;;6.62;100.00;100999.69;6081693;19;20037;-74
2023/12/30 01:10:58;;;;;;;7.28;1.80;;;;;;;6.70;100.00;101011.69;6087179;19;20381;-73
2023/12/30 01:13:08;;;;;;;2.20;1.80;;;;;;;6.70;100.00;101003.84;6082755;19;20038;-73
2023/12/30 01:15:13;;;;;;;5.20;1.35;;;;;;;6.70;100.00;101006.47;6083643;19;20003;-71
2023/12/30 01:17:21;;;;;;;6.57;1.52;;;;;;;6.65;100.00;101015.28;6083746;19;20002;-71
2023/12/30 01:19:27;;;;;;;7.40;1.40;;;;;;;6.62;100.00;101013.59;6082693;19;20010;-72
2023/12/30 01:21:32;;;;;;;4.32;1.35;;;;;;;6.60;100.00;101008.41;6081310;19;20027;-74
2023/12/30 01:23:37;;;;;;;4.03;1.45;;;;;;;6.63;100.00;101012.69;6082727;19;20010;-74
2023/12/30 01:25:44;;;;;;;7.32;1.58;;;;;;;6.65;100.00;101010.91;6079138;19;20018;-73
2023/12/30 01:27:49;;;;;;;2.05;1.15;;;;;;;6.71;100.00;101012.53;6082122;19;20026;-74
2023/12/30 01:29:57;;;;;;;2.72;1.20;;;;;;;6.73;100.00;101013.38;6080403;19;20334;-75
2023/12/30 01:32:02;;;;;;;6.35;2.08;;;;;;;6.65;100.00;101018.75;6082104;19;21134;-73
2023/12/30 01:34:09;;;;;;;5.00;1.55;;;;;;;6.63;100.00;101017.91;6083325;19;20014;-72
2023/12/30 01:36:18;;;;;;;9.07;2.17;;;;;;;6.64;100.00;101019.66;6079365;19;20011;-72
2023/12/30 01:38:26;;;;;;;2.05;1.25;;;;;;;6.72;100.00;101019.50;6082434;19;20368;-75
2023/12/30 01:40:35;;;;;;;4.95;1.48;;;;;;;6.64;100.00;101029.25;6082973;19;20006;-75
2023/12/30 01:42:42;;;;;;;7.55;1.40;;;;;;;6.67;100.00;101034.41;6082012;19;20027;-71
2023/12/30 01:44:49;;;;;;;13.30;2.40;;;;;;;6.71;100.00;101031.66;6081394;19;20373;-74
2023/12/30 01:46:57;;;;;;;5.95;1.58;;;;;;;6.62;100.00;101034.50;6081873;19;20017;-73
2023/12/30 01:49:04;;;;;;;5.25;1.48;;;;;;;6.57;100.00;101037.19;6080738;19;20011;-73
2023/12/30 01:51:12;;;;;;;6.53;1.63;;;;;;;6.54;100.00;101042.47;6081689;19;20014;-71
2023/12/30 01:53:30;;;;;;;6.97;1.60;;;;;;;6.48;100.00;101044.38;6077966;19;20018;-71
2023/12/30 01:55:35;;;;;;;3.80;1.13;;;;;;;6.48;100.00;101050.44;6081240;19;20011;-72
2023/12/30 01:57:41;;;;;;;5.72;1.42;;;;;;;6.48;100.00;101049.59;6080374;19;20021;-73
2023/12/30 01:59:47;;;;;;;3.90;1.52;;;;;;;6.56;100.00;101048.53;6077529;19;20022;-74
2023/12/30 02:01:53;;;;;;;8.45;2.53;;;;;;;6.51;100.00;101055.59;6080171;19;20077;-74
2023/12/30 02:03:58;;;;;;;2.20;1.25;;;;;;;6.52;100.00;101057.31;6082044;19;20029;-72
2023/12/30 02:06:04;;;;;;;3.45;1.50;;;;;;;6.48;100.00;101066.09;6081304;19;20077;-73
2023/12/30 02:08:09;;;;;;;5.93;1.83;;;;;;;6.48;100.00;101070.47;6079669;19;20018;-72
2023/12/30 02:10:21;;;;;;;7.13;1.88;;;;;;;6.51;100.00;101068.66;6083279;19;20034;-74
2023/12/30 02:12:26;;;;;;;5.18;1.42;;;;;;;6.47;100.00;101066.13;6081753;19;20007;-72
2023/12/30 02:14:32;;;;;;;2.92;1.75;;;;;;;6.42;100.00;101071.44;6081995;19;20009;-73
2023/12/30 02:16:37;;;;;;;5.60;1.98;;;;;;;6.37;100.00;101075.88;6079150;19;20014;-73
2023/12/30 02:18:42;;;;;;;4.15;2.00;;;;;;;6.37;100.00;101074.16;6079980;19;20395;-73
2023/12/30 02:20:51;;;;;;;5.50;1.70;;;;;;;6.38;100.00;101069.78;6077154;19;20029;-74
2023/12/30 02:23:01;;;;;;;3.22;1.50;;;;;;;6.35;100.00;101072.47;6079824;19;20463;-75
2023/12/30 02:25:05;;;;;;;3.28;1.48;;;;;;;6.35;100.00;101067.25;6081678;19;20019;-73
2023/12/30 02:27:10;;;;;;;3.05;1.15;;;;;;;6.34;100.00;101073.34;6077249;19;20010;-72
2023/12/30 02:29:15;;;;;;;2.80;1.40;;;;;;;6.39;100.00;101081.94;6079352;19;20094;-74
2023/12/30 02:31:20;;;;;;;4.93;1.65;;;;;;;6.35;100.00;101082.91;6080001;19;20345;-74
2023/12/30 02:33:25;;;;;;;3.83;1.88;;;;;;;6.37;100.00;101082.00;6082231;19;20006;-72
2023/12/30 02:35:30;;;;;;;5.07;1.42;;;;;;;6.35;100.00;101086.38;6081664;19;20013;-73
2023/12/30 02:37:37;;;;;;;2.28;1.52;;;;;;;6.42;100.00;101086.25;6081198;19;20418;-72
2023/12/30 02:39:45;;;;;;;2.55;1.30;;;;;;;6.41;100.00;101079.31;6080005;19;20475;-73
2023/12/30 02:41:50;;;;;;;4.10;1.10;;;;;;;6.41;100.00;101085.38;6075889;19;20014;-73
2023/12/30 02:44:00;;;;;;;4.80;1.73;;;;;;;6.45;100.00;101081.84;6079048;19;20028;-72
2023/12/30 02:46:05;;;;;;;1.25;0.98;;;;;;;6.49;100.00;101082.63;6078897;19;20010;-72
2023/12/30 02:48:10;;;;;;;3.78;1.25;;;;;;;6.48;100.00;101087.00;6080705;19;20086;-73
2023/12/30 02:50:13;;;;;;;4.80;1.27;;;;;;;6.48;100.00;101081.78;6079553;19;20878;-73
2023/12/30 02:52:19;;;;;;;5.78;1.60;;;;;;;6.47;100.00;101092.22;6079618;19;20049;-72
2023/12/30 02:54:26;;;;;;;8.48;1.85;;;;;;;6.56;100.00;101081.63;6081278;19;20010;-73
2023/12/30 02:56:33;;;;;;;3.78;1.50;;;;;;;6.54;100.00;101080.78;6081158;19;20569;-72
2023/12/30 02:58:38;;;;;;;4.65;1.45;;;;;;;6.60;100.00;101085.88;6079944;19;20014;-73
2023/12/30 03:00:43;;;;;;;10.50;2.50;;;;;;;6.52;100.00;101079.94;6074581;19;20013;-73
2023/12/30 03:02:52;;;;;;;4.47;1.65;;;;;;;6.52;100.00;101083.41;6080130;19;20010;-73
2023/12/30 03:04:57;;;;;;;2.58;1.30;;;;;;;6.52;100.00;101086.03;6081478;19;20011;-72
2023/12/30 03:07:05;;;;;;;7.75;1.70;;;;;;;6.56;100.00;101085.09;6073471;19;20474;-72
2023/12/30 03:09:13;;;;;;;4.53;1.73;;;;;;;6.52;100.00;101078.19;6078937;19;20014;-72
2023/12/30 03:11:19;;;;;;;4.88;1.88;;;;;;;6.48;100.00;101083.53;6081961;19;20499;-72
2023/12/30 03:13:24;;;;;;;1.35;1.20;;;;;;;6.38;100.00;101088.91;6077146;19;20033;-72
2023/12/30 03:15:32;;;;;;;5.38;1.58;;;;;;;6.40;100.00;101091.50;6080462;19;20033;-72
2023/12/30 03:17:37;;;;;;;2.47;1.40;;;;;;;6.33;100.00;101092.50;6079050;19;20070;-73
2023/12/30 03:19:46;;;;;;;5.57;1.48;;;;;;;6.33;100.00;101095.13;6081396;19;20002;-72
2023/12/30 03:21:51;;;;;;;4.65;1.70;;;;;;;6.35;100.00;101102.03;6072080;19;20328;-73
2023/12/30 03:23:54;;;;;;;3.90;1.30;;;;;;;6.38;100.00;101101.13;6080596;19;20010;-73
2023/12/30 03:26:02;;;;;;;4.22;1.52;;;;;;;6.43;100.00;101112.31;6079830;19;20021;-74
2023/12/30 03:28:07;;;;;;;3.33;1.70;;;;;;;6.38;100.00;101106.34;6076176;19;20006;-72
2023/12/30 03:30:20;;;;;;;4.72;1.33;;;;;;;6.37;100.00;101109.81;6079895;19;20098;-73
2023/12/30 03:32:25;;;;;;;5.35;2.90;;;;;;;6.37;100.00;101101.97;6084569;19;20056;-75
2023/12/30 03:34:30;;;;;;;4.78;1.88;;;;;;;6.31;100.00;101104.72;6084129;19;20520;-74
2023/12/30 03:36:35;;;;;;;2.40;1.10;;;;;;;6.28;100.00;101104.78;6080597;19;20538;-74
2023/12/30 03:38:40;;;;;;;6.80;2.10;;;;;;;6.29;100.00;101101.25;6085709;19;20241;-74
2023/12/30 03:40:46;;;;;;;4.15;1.38;;;;;;;6.25;100.00;101104.84;6086870;19;20014;-75
2023/12/30 03:42:51;;;;;;;3.53;1.48;;;;;;;6.25;100.00;101103.09;6085177;19;20042;-74
2023/12/30 03:44:56;;;;;;;6.80;1.67;;;;;;;6.25;100.00;101100.47;6084976;19;20003;-74
2023/12/30 03:47:04;;;;;;;8.13;1.55;;;;;;;6.18;100.00;101103.22;6084609;19;20034;-72
2023/12/30 03:49:09;;;;;;;5.20;1.48;;;;;;;6.30;100.00;101095.19;6085804;19;20010;-75
2023/12/30 03:51:18;;;;;;;2.88;1.50;;;;;;;6.34;100.00;101105.50;6085709;19;20014;-72
2023/12/30 03:53:20;;;;;;;6.03;1.48;;;;;;;6.33;100.00;101102.94;6084000;19;20013;-72
2023/12/30 03:55:25;;;;;;;2.35;1.33;;;;;;;6.32;100.00;101104.69;6083526;19;20408;-73
2023/12/30 03:57:27;;;;;;;3.55;1.45;;;;;;;6.29;100.00;101107.38;6088515;19;20038;-71
2023/12/30 03:59:34;;;;;;;3.10;1.42;;;;;;;6.33;100.00;101101.19;6085238;19;20030;-73
2023/12/30 04:01:43;;;;;;;7.35;1.48;;;;;;;6.35;100.00;101098.56;6085834;19;20045;-71
2023/12/30 04:03:52;;;;;;;4.38;1.38;;;;;;;6.40;100.00;101098.44;6084845;19;20007;-72
2023/12/30 04:05:54;;;;;;;3.58;1.45;;;;;;;6.29;100.00;101096.94;6085485;19;20058;-71
2023/12/30 04:08:01;;;;;;;12.57;1.85;;;;;;;6.30;100.00;101108.22;6077097;19;20076;-73
2023/12/30 04:10:07;;;;;;;4.85;1.52;;;;;;;6.33;100.00;101101.19;6083981;19;20003;-73
2023/12/30 04:12:15;;;;;;;3.83;1.30;;;;;;;6.34;100.00;101107.25;6082918;19;20038;-73
2023/12/30 04:14:21;;;;;;;1.90;1.30;;;;;;;6.20;100.00;101098.84;6084467;19;20003;-73
2023/12/30 04:16:27;;;;;;;3.05;1.10;;;;;;;6.28;100.00;101108.25;6086245;19;20048;-72
2023/12/30 04:18:33;;;;;;;2.60;1.30;;;;;;;6.26;100.00;101111.78;6085265;19;20512;-71
2023/12/30 04:20:41;;;;;;;1.08;0.98;;;;;;;6.25;100.00;101107.44;6084862;19;21029;-73
2023/12/30 04:22:44;;;;;;;14.48;2.00;;;;;;;6.26;100.00;101111.78;6084436;19;20010;-72
2023/12/30 04:24:49;;;;;;;3.03;1.52;;;;;;;6.27;100.00;101110.91;6085577;19;20025;-72
2023/12/30 04:26:54;;;;;;;2.85;1.38;;;;;;;6.35;100.00;101112.47;6083182;19;20237;-72
2023/12/30 04:29:00;;;;;;;2.30;1.55;;;;;;;6.35;100.00;101114.22;6086312;19;20113;-72
2023/12/30 04:31:06;;;;;;;4.20;1.38;;;;;;;6.33;100.00;101108.16;6084444;19;20018;-75
2023/12/30 04:33:11;;;;;;;4.07;1.42;;;;;;;6.40;100.00;101120.22;6083367;19;20399;-72
2023/12/30 04:35:16;;;;;;;3.58;1.23;;;;;;;6.44;100.00;101114.03;6083945;19;19999;-75
2023/12/30 04:37:27;;;;;;;4.63;1.52;;;;;;;6.43;100.00;101116.69;6086313;19;20010;-75
2023/12/30 04:39:33;;;;;;;3.55;1.10;;;;;;;6.45;100.00;101117.50;6084526;19;20030;-73
2023/12/30 04:41:38;;;;;;;2.92;0.98;;;;;;;6.41;100.00;101126.28;6084154;19;20478;-74
2023/12/30 04:43:43;;;;;;;5.15;1.50;;;;;;;6.34;100.00;101129.00;6082349;19;20027;-74
2023/12/30 04:45:49;;;;;;;10.75;2.28;;;;;;;6.35;100.00;101122.91;6083445;19;20013;-74
2023/12/30 04:47:53;;;;;;;11.10;1.55;;;;;;;6.36;100.00;101126.38;6084224;19;20006;-72
2023/12/30 04:49:59;;;;;;;6.10;1.70;;;;;;;6.31;100.00;101121.22;6082351;19;20070;-72
2023/12/30 04:52:04;;;;;;;1.50;1.40;;;;;;;6.33;100.00;101119.47;6074784;19;20015;-75
2023/12/30 04:54:09;;;;;;;2.75;1.85;;;;;;;6.28;100.00;101130.88;6080317;19;20063;-75
2023/12/30 04:56:18;;;;;;;2.85;1.52;;;;;;;6.20;100.00;101131.00;6082017;19;20011;-76
2023/12/30 04:58:20;;;;;;;1.98;1.27;;;;;;;6.27;100.00;101134.38;6084858;19;20019;-76
2023/12/30 05:00:28;;;;;;;6.60;1.80;;;;;;;6.18;100.00;101134.53;6080901;19;20027;-75
2023/12/30 05:02:34;;;;;;;3.05;1.65;;;;;;;6.21;100.00;101139.69;6084849;19;20006;-72
2023/12/30 05:04:38;;;;;;;5.80;1.60;;;;;;;6.26;100.00;101143.09;6085891;19;20018;-72
2023/12/30 05:06:46;;;;;;;6.70;1.55;;;;;;;6.31;100.00;101136.03;6084617;19;20014;-71
2023/12/30 05:08:55;;;;;;;6.05;1.63;;;;;;;6.28;100.00;101146.53;6082145;19;20086;-74
2023/12/30 05:11:06;;;;;;;4.53;1.63;;;;;;;6.33;100.00;101140.34;6081067;19;20006;-71
2023/12/30 05:13:11;;;;;;;5.28;1.92;;;;;;;6.33;100.00;101142.09;6084129;19;20010;-72
2023/12/30 05:15:16;;;;;;;10.77;2.83;;;;;;;6.36;100.00;101136.81;6082272;19;20007;-73
2023/12/30 05:17:25;;;;;;;3.20;1.40;;;;;;;6.31;100.00;101136.88;6082833;19;20417;-74
2023/12/30 05:19:30;;;;;;;4.38;1.77;;;;;;;6.38;100.00;101142.88;6081335;19;20010;-72
2023/12/30 05:21:35;;;;;;;4.40;1.58;;;;;;;6.30;100.00;101129.09;6082372;19;20016;-72
2023/12/30 05:23:42;;;;;;;5.15;1.55;;;;;;;6.35;100.00;101142.94;6081635;19;20007;-73
2023/12/30 05:25:51;;;;;;;6.75;1.60;;;;;;;6.35;100.00;101151.63;6082567;19;20006;-73
2023/12/30 05:27:58;;;;;;;1.75;1.27;;;;;;;6.45;100.00;101151.44;6083632;19;20010;-72
2023/12/30 05:30:03;;;;;;;3.60;1.52;;;;;;;6.44;100.00;101155.81;6082284;19;20006;-74
2023/12/30 05:32:11;;;;;;;3.80;1.55;;;;;;;6.38;100.00;101148.09;6083763;19;20013;-75
2023/12/30 05:34:17;;;;;;;3.25;1.50;;;;;;;6.44;100.00;101153.19;6084890;19;20033;-75
2023/12/30 05:36:22;;;;;;;7.68;1.77;;;;;;;6.33;100.00;101157.75;6081877;19;20010;-74
2023/12/30 05:38:27;;;;;;;2.00;1.60;;;;;;;6.27;100.00;101158.72;6083600;19;20661;-75
2023/12/30 05:40:32;;;;;;;3.30;2.17;;;;;;;6.24;100.00;101161.41;6081161;19;20010;-73
2023/12/30 05:42:38;;;;;;;8.30;2.20;;;;;;;6.29;100.00;101162.19;6079508;19;20023;-73
2023/12/30 05:44:47;;;;;;;5.60;1.70;;;;;;;6.25;100.00;101162.25;6080356;19;20027;-73
2023/12/30 05:46:54;;;;;;;5.05;1.40;;;;;;;6.33;100.00;101157.75;6082940;19;20011;-73
2023/12/30 05:48:59;;;;;;;3.65;1.63;;;;;;;6.28;100.00;101162.19;6083636;19;20002;-75
2023/12/30 05:51:04;;;;;;;5.45;2.92;;;;;;;6.34;100.00;101162.06;6082706;19;20426;-73
2023/12/30 05:53:10;;;;;;;5.40;1.88;;;;;;;6.38;100.00;101158.53;6079299;19;20015;-73
2023/12/30 05:55:16;;;;;;;3.97;1.63;;;;;;;6.30;100.00;101160.44;6081121;19;20014;-72
2023/12/30 05:57:21;;;;;;;6.30;1.80;;;;;;;6.32;100.00;101156.91;6083286;19;20126;-72
2023/12/30 05:59:29;;;;;;;3.45;1.38;;;;;;;6.38;100.00;101163.75;6081481;19;20029;-74
2023/12/30 06:01:48;;;;;;;5.10;1.95;;;;;;;6.38;100.00;101169.84;6083293;19;20018;-76
2023/12/30 06:03:53;;;;;;;6.75;1.60;;;;;;;6.37;100.00;101167.22;6082602;19;20021;-74
2023/12/30 06:05:58;;;;;;;5.07;1.60;;;;;;;6.31;100.00;101176.03;6083019;19;20002;-76
2023/12/30 06:08:03;;;;;;;7.45;2.15;;;;;;;6.37;100.00;101175.06;6081957;19;20003;-73
2023/12/30 06:10:10;;;;;;;6.07;1.70;;;;;;;6.40;100.00;101180.25;6082186;19;20420;-76
2023/12/30 06:12:16;;;;;;;5.97;1.88;;;;;;;6.32;100.00;101184.75;6082089;19;20482;-73
2023/12/30 06:14:21;;;;;;;6.28;1.60;;;;;;;6.33;100.00;101189.06;6082460;19;20002;-74
2023/12/30 06:16:26;;;;;;;4.18;1.38;;;;;;;6.35;100.00;101188.16;6079652;19;20143;-72
2023/12/30 06:18:34;;;;;;;5.38;1.52;;;;;;;6.22;100.00;101196.22;6084815;19;20833;-72
2023/12/30 06:20:36;;;;;;;4.50;1.65;;;;;;;6.15;100.00;101183.28;6079932;19;20300;-72
2023/12/30 06:22:41;;;;;;;3.90;1.90;;;;;;;6.19;100.00;101185.81;6077026;19;20077;-72
2023/12/30 06:24:44;;;;;;;7.07;2.30;;;;;;;6.13;100.00;101179.84;6081021;19;20167;-72
2023/12/30 06:26:51;;;;;;;1.98;1.23;;;;;;;6.13;100.00;101182.47;6078672;19;20015;-74
2023/12/30 06:28:56;;;;;;;2.30;1.55;;;;;;;6.08;100.00;101181.69;6080721;19;20010;-74
2023/12/30 06:31:02;;;;;;;2.85;1.77;;;;;;;6.08;100.00;101184.28;6080919;19;20014;-74
2023/12/30 06:33:08;;;;;;;5.40;2.08;;;;;;;6.04;100.00;101179.13;6080631;19;20006;-75
2023/12/30 06:35:16;;;;;;;2.75;1.30;;;;;;;6.01;100.00;101174.81;6080922;19;20003;-75
2023/12/30 06:37:22;;;;;;;6.78;2.17;;;;;;;6.03;100.00;101183.50;6079850;19;20489;-74
2023/12/30 06:39:27;;;;;;;3.33;1.52;;;;;;;6.15;100.00;101185.88;6081464;19;20015;-75
2023/12/30 06:41:33;;;;;;;5.88;1.77;;;;;;;6.19;100.00;101188.44;6080960;19;20272;-74
2023/12/30 06:43:38;;;;;;;2.40;1.75;;;;;;;6.22;100.00;101188.41;6080567;19;20049;-75
2023/12/30 06:45:43;;;;;;;6.97;2.30;;;;;;;6.27;100.00;101183.97;6078559;19;20011;-73
2023/12/30 06:47:47;;;;;;;2.85;1.70;;;;;;;6.31;100.00;101177.78;6082702;19;20010;-75
2023/12/30 06:49:54;;;;;;;3.70;1.60;;;;;;;6.27;100.00;101182.22;6082687;19;20018;-76
2023/12/30 06:52:02;;;;;;;2.90;1.75;;;;;;;6.25;100.00;101176.16;6079567;19;20486;-73
2023/12/30 06:54:06;;;;;;;4.53;1.70;;;;;;;6.23;100.00;101177.06;6078901;19;20426;-73
2023/12/30 06:56:11;;;;;;;5.68;2.00;;;;;;;6.25;100.00;101175.31;6078007;19;20014;-74
2023/12/30 06:58:22;;;;;;;6.25;2.05;;;;;;;6.17;100.00;101167.59;6079665;19;20003;-73
2023/12/30 07:00:28;;;;;;;6.38;1.80;;;;;;;6.21;100.00;101168.41;6079985;19;20006;-73
2023/12/30 07:02:34;;;;;;;4.80;1.98;;;;;;;6.11;100.00;101175.53;6079963;19;20993;-73
2023/12/30 07:04:39;;;;;;;6.65;1.58;;;;;;;6.09;100.00;101175.56;6080569;19;20491;-74
2023/12/30 07:06:44;;;;;;;4.60;1.80;;;;;;;6.06;100.00;101175.59;6083338;19;20542;-76
2023/12/30 07:08:52;;;;;;;5.35;1.50;;;;;;;6.01;100.00;101179.19;6084925;19;20026;-77
2023/12/30 07:10:57;;;;;;;11.05;2.88;;;;;;;5.97;100.00;101175.75;6084419;19;20110;-77
2023/12/30 07:13:03;;;;;;;6.15;1.88;;;;;;;5.94;100.00;101181.88;6085941;19;20560;-75
2023/12/30 07:15:10;;;;;;;6.10;2.00;;;;;;;5.90;100.00;101177.56;6087027;19;20030;-74
2023/12/30 07:17:17;;;;;;;2.30;1.70;;;;;;;5.94;100.00;101184.47;6086479;19;20007;-75
2023/12/30 07:19:23;;;;;;;4.72;2.00;;;;;;;5.90;100.00;101192.38;6088674;19;20002;-73
2023/12/30 07:21:28;;;;;;;3.90;1.55;;;;;;;5.87;100.00;101192.38;6086860;19;20006;-73
2023/12/30 07:23:34;;;;;;;4.18;1.52;;;;;;;5.91;100.00;101196.69;6084609;19;20038;-73
2023/12/30 07:25:42;;;;;;;3.92;1.58;;;;;;;5.85;100.00;101194.19;6083825;19;20007;-72
2023/12/30 07:27:49;;;;;;;9.63;2.10;;;;;;;5.86;100.00;101195.91;6084236;19;20006;-77
2023/12/30 07:29:53;;;;;;;2.67;1.50;;;;;;;5.90;100.00;101192.38;6087041;19;20062;-77
2023/12/30 07:31:59;;;;;;;;;;;;;;;5.87;100.00;101195.88;6085823;19;20411;-75
2023/12/30 07:34:05;;;;;;;6.47;1.77;;;;;;;5.86;100.00;101201.09;6085018;19;20023;-76
2023/12/30 07:36:09;;;;;;;3.45;1.58;;;;;;;5.95;100.00;101203.63;6084483;19;20010;-75
2023/12/30 07:38:15;;;;;;;13.75;1.98;;;;;;;5.96;100.00;101212.31;6087583;19;20023;-75
2023/12/30 07:40:21;;;;;;;9.18;2.20;;;;;;;5.88;100.00;101207.16;6084611;19;20494;-75
2023/12/30 07:42:29;;;;;;;7.43;1.50;;;;;;;5.87;100.00;101218.47;6086947;19;20018;-75
2023/12/30 07:44:37;;;;;;;2.90;1.40;;;;;;;5.85;100.00;101225.47;6079464;19;20443;-75
2023/12/30 07:46:43;;;;;;;5.95;1.65;;;;;;;5.86;100.00;101235.00;6086608;19;20552;-72
2023/12/30 07:48:48;;;;;;;5.53;1.58;;;;;;;5.88;100.00;101234.09;6085481;19;20402;-72
2023/12/30 07:50:54;;;;;;;9.32;2.40;;;;;;;5.79;100.00;101228.16;6084799;19;20031;-73
2023/12/30 07:53:02;;;;;;;7.70;2.10;;;;;;;5.71;100.00;101238.69;6078414;19;20035;-75
2023/12/30 07:55:08;;;;;;;8.25;2.08;;;;;;;5.89;100.00;101243.66;6084956;19;20006;-75
2023/12/30 07:57:14;;;;;;;4.10;2.20;;;;;;;5.96;100.00;101241.84;6081596;19;20011;-77
2023/12/30 07:59:23;;;;;;;7.75;1.98;;;;;;;5.89;100.00;101234.97;6081274;19;24071;-75
2023/12/30 08:01:31;;;;;;;5.72;2.20;;;;;;;5.82;100.00;101233.31;6079472;19;20019;-73
2023/12/30 08:03:36;;;;;;;5.25;2.25;;;;;;;5.80;100.00;101232.50;6085138;19;20034;-75
2023/12/30 08:05:41;;;;;;;2.95;1.73;;;;;;;5.75;100.00;101234.31;6085214;19;20010;-75
2023/12/30 08:07:50;;;;;;;4.75;2.10;;;;;;;5.80;100.00;101230.75;6086662;19;20030;-73
2023/12/30 08:09:55;;;;;;;5.53;1.88;;;;;;;5.89;100.00;101240.19;6082415;19;20086;-72
2023/12/30 08:12:00;;;;;;;6.28;1.73;;;;;;;5.95;100.00;101245.38;6084806;19;20466;-75
2023/12/30 08:14:07;;;;;;;9.07;2.13;;;;;;;6.00;100.00;101238.28;6086141;19;20006;-72
2023/12/30 08:16:15;;;;;;;9.52;2.25;;;;;;;6.03;100.00;101235.66;6087577;19;20422;-72
2023/12/30 08:18:20;;;;;;;6.38;2.40;;;;;;;6.03;100.00;101243.50;6082796;19;20413;-73
2023/12/30 08:20:22;;;;;;;5.60;2.38;;;;;;;6.08;100.00;101243.41;6085928;19;20384;-73
2023/12/30 08:22:28;;;;;;;7.93;2.25;;;;;;;6.12;100.00;101242.47;6086422;19;20093;-72
2023/12/30 08:24:36;;;;;;;6.82;2.00;;;;;;;6.13;100.00;101245.09;6085187;19;20002;-75
2023/12/30 08:26:41;;;;;;;2.63;1.52;;;;;;;6.12;100.00;101245.94;6087459;19;20030;-72
2023/12/30 08:28:46;;;;;;;6.43;1.88;;;;;;;6.17;100.00;101245.88;6086618;19;20007;-74
2023/12/30 08:30:53;;;;;;;4.40;1.67;;;;;;;6.20;100.00;101260.63;6085724;19;20601;-73
2023/12/30 08:33:06;;;;;;;7.07;2.42;;;;;;;6.27;100.00;101259.66;6086370;19;20026;-74
2023/12/30 08:35:18;;;;;;;2.55;1.55;;;;;;;6.29;100.00;101260.47;6085225;19;20031;-76
2023/12/30 08:37:23;;;;;;;3.70;2.33;;;;;;;6.29;100.00;101253.53;6081524;19;20003;-74
2023/12/30 08:39:31;;;;;;;12.85;2.72;;;;;;;6.34;100.00;101241.22;6086374;19;20026;-73
2023/12/30 08:41:36;;;;;;;8.70;2.55;;;;;;;6.40;100.00;101245.50;6087009;19;20005;-74
2023/12/30 08:43:41;;;;;;;6.97;2.60;;;;;;;6.41;100.00;101249.84;6084272;19;20002;-73
2023/12/30 08:45:44;;;;;;;4.40;2.03;;;;;;;6.43;100.00;101244.59;6087139;19;20029;-73
2023/12/30 08:47:51;;;;;;;4.80;2.10;;;;;;;6.44;100.00;101257.63;6085023;19;20077;-72
2023/12/30 08:49:59;;;;;;;13.18;3.38;;;;;;;6.44;100.00;101259.38;6086524;19;20106;-76
2023/12/30 08:52:05;;;;;;;8.45;3.33;;;;;;;6.46;100.00;101262.81;6084492;19;20007;-76
2023/12/30 08:54:10;;;;;;;4.47;2.20;;;;;;;6.46;100.00;101262.81;6083388;19;20020;-76
2023/12/30 08:56:19;;;;;;;9.27;2.40;;;;;;;6.44;100.00;101267.19;6086554;19;20019;-74
2023/12/30 08:58:27;;;;;;;8.38;2.58;;;;;;;6.44;100.00;101268.06;6084557;19;20038;-76
2023/12/30 09:00:34;;;;;;;7.82;2.58;;;;;;;6.47;100.00;101278.44;6083821;19;20013;-77
2023/12/30 09:02:46;;;;;;;12.98;3.15;;;;;;;6.55;100.00;101273.09;6078995;19;20016;-73
2023/12/30 09:04:53;;;;;;;14.65;2.83;;;;;;;6.58;100.00;101271.31;6085280;19;20074;-75
2023/12/30 09:07:01;;;;;;;12.60;3.08;;;;;;;6.58;100.00;101266.09;6085131;19;20078;-78
2023/12/30 09:09:06;;;;;;;7.93;2.30;;;;;;;6.63;100.00;101267.75;6084520;19;20046;-73
2023/12/30 09:11:20;;;;;;;11.20;2.65;;;;;;;6.68;100.00;101260.69;6084289;19;20038;-75
2023/12/30 09:13:26;;;;;;;7.28;2.22;;;;;;;6.74;100.00;101268.41;6084454;19;20384;-73
2023/12/30 09:15:31;;;;;;;8.85;3.38;;;;;;;6.70;100.00;101267.63;6084573;19;20006;-73
2023/12/30 09:17:39;;;;;;;10.88;2.35;;;;;;;6.75;100.00;101278.00;6084907;19;20026;-73
2023/12/30 09:19:44;;;;;;;6.20;2.00;;;;;;;6.79;100.00;101284.88;6081405;19;20019;-75
2023/12/30 09:21:50;;;;;;;4.22;2.30;;;;;;;6.85;100.00;101284.78;6083110;19;20646;-72
2023/12/30 09:23:58;;;;;;;6.72;2.22;;;;;;;6.90;100.00;101282.94;6085381;19;20037;-77
2023/12/30 09:26:05;;;;;;;5.13;1.90;;;;;;;6.94;100.00;101278.50;6082200;19;20643;-74
2023/12/30 09:28:12;;;;;;;6.47;1.88;;;;;;;7.01;100.00;101265.31;6085176;19;20541;-76
2023/12/30 09:30:20;;;;;;;6.57;2.20;;;;;;;7.09;100.00;101274.75;6082104;19;20014;-76
2023/12/30 09:32:23;;;;;;;8.93;2.25;;;;;;;7.07;100.00;101279.16;6082230;19;20015;-73
2023/12/30 09:34:28;;;;;;;4.20;1.92;;;;;;;7.17;100.00;101276.34;6082702;19;20110;-76
2023/12/30 09:36:45;;;;;;;12.05;2.42;;;;;;;7.20;100.00;101272.78;6083152;19;20485;-77
2023/12/30 09:38:51;;;;;;;7.97;2.53;;;;;;;7.24;100.00;101282.28;6081848;19;20097;-76
2023/12/30 09:41:00;;;;;;;10.68;2.20;;;;;;;7.30;100.00;101284.78;6080272;19;20022;-73
2023/12/30 09:43:07;;;;;;;5.00;2.03;;;;;;;7.32;100.00;101290.88;6079523;19;20070;-76
2023/12/30 09:45:14;;;;;;;12.20;2.55;;;;;;;7.36;100.00;101292.50;6082966;19;20013;-73
2023/12/30 09:47:21;;;;;;;11.55;2.55;;;;;;;7.38;100.00;101290.72;6082734;19;20027;-77